Pagrindinis puslapis
METAR-TAF:

METAR-TAF

Oro uostai :

Noorvik, Aliaska, Jungtinės Amerikos Valstijos

platuma: 66-49-03N, ilguma: 161-01-20W, Aukštis: 17 m

Dabartinis oras

Ataskaita buvo paskelbta 7 minutes, ne 01:56 UTC
Vėjas 5 kt iš Pietų
Temperatūra 9°C
Drėgmė 87%
Slėgis 992 hPa
Matomumas: 11.3 km
Su prošvaistėmis ne aukštis 800 ft
Apsiniaukę ne aukštis 2800 ft

METAR: PFNO 190156Z AUTO 19005KT 7SM BKN008 OVC028 09/07 A2930 RMK AO2 CIG 006V011 SLP003 T00890072

Laikas: 18:03 (02:03 UTC)


TAF: trūkstamas

Orai ataskaitas ir orų prognozės (METAR, TAF).

turimą stotys yra geltonos ir raudonos taškus žemėlapyje.

Perkelti pele per norėdami pamatyti stoties vardą.

Tada spustelėkite, norėdami matyti oro stebėjimo ir prognozės.

Norėdami pakeisti žemėlapį: spustelėkite ant žalios mygtukų su juodo kryžiaus žemyn,; žalią mygtuką su brūkšneliu, jei norite nutolinti; arba žalių rodyklių gretimoms žemėlapius.


METAR-TAF: